Time;durP1;ratioP1;P1;durP2;ratioP2;P2;SDS_P1;SDS_P2;PMS_P1;PMS_P2;Temp;Humidity;BMP_temperature;BMP_pressure;BME280_temperature;BME280_humidity;BME280_pressure;Samples;Min_cycle;Max_cycle;Signal;HPM_P1;HPM_P2
2022/06/08 00:02:06;;;;;;;3.57;3.27;;;14.00;99.90;;;;;;4957623;29;20434;-85
2022/06/08 00:04:33;;;;;;;3.90;3.60;;;14.00;99.90;;;;;;4957859;29;20438;-85
2022/06/08 00:07:00;;;;;;;3.87;3.43;;;14.00;99.90;;;;;;4957716;29;20553;-86
2022/06/08 00:09:27;;;;;;;3.83;3.53;;;14.00;99.90;;;;;;4957440;29;20454;-86
2022/06/08 00:11:56;;;;;;;3.83;3.53;;;14.10;99.90;;;;;;4957528;29;20469;-86
2022/06/08 00:14:22;;;;;;;6.27;3.97;;;14.20;99.90;;;;;;4957132;29;20457;-85
2022/06/08 00:16:49;;;;;;;3.53;3.33;;;14.10;99.90;;;;;;4951353;29;20501;-86
2022/06/08 00:19:16;;;;;;;4.03;3.73;;;14.20;99.90;;;;;;4950122;29;20458;-85
2022/06/08 00:21:43;;;;;;;3.87;3.60;;;14.30;99.90;;;;;;4949967;29;20578;-83
2022/06/08 00:24:10;;;;;;;4.60;4.20;;;14.30;99.90;;;;;;4953028;29;20461;-87
2022/06/08 00:26:37;;;;;;;4.43;4.03;;;14.20;99.90;;;;;;4949598;29;20474;-86
2022/06/08 00:29:05;;;;;;;4.33;3.83;;;14.10;99.90;;;;;;4949410;29;20465;-85
2022/06/08 00:31:32;;;;;;;3.73;3.50;;;14.20;99.90;;;;;;4949600;29;20462;-86
2022/06/08 00:33:59;;;;;;;5.00;4.17;;;14.10;99.90;;;;;;4949931;29;20464;-86
2022/06/08 00:36:26;;;;;;;5.70;3.87;;;14.10;99.90;;;;;;4949279;29;20509;-86
2022/06/08 00:38:52;;;;;;;3.40;3.20;;;14.20;99.90;;;;;;4948889;29;20956;-85
2022/06/08 00:41:41;;;;;;;4.03;3.63;;;14.20;99.90;;;;;;4948988;29;20456;-85
2022/06/08 00:44:13;;;;;;;3.80;3.50;;;14.30;99.90;;;;;;4949288;29;20470;-86
2022/06/08 00:46:40;;;;;;;4.27;3.97;;;14.10;99.90;;;;;;4948980;29;20482;-86
2022/06/08 00:49:15;;;;;;;4.17;3.83;;;14.10;99.90;;;;;;4949011;29;20520;-85
2022/06/08 00:51:42;;;;;;;4.47;4.07;;;14.20;99.90;;;;;;4949272;29;20446;-85
2022/06/08 00:54:17;;;;;;;4.53;4.10;;;14.20;99.90;;;;;;4948533;29;20490;-85
2022/06/08 00:56:50;;;;;;;4.00;3.70;;;14.10;99.90;;;;;;4949248;29;20599;-85
2022/06/08 00:59:18;;;;;;;5.63;5.23;;;14.20;99.90;;;;;;4948614;29;20850;-85
2022/06/08 01:01:45;;;;;;;3.70;3.50;;;14.20;99.90;;;;;;4948847;29;20458;-85
2022/06/08 01:04:14;;;;;;;4.67;4.27;;;14.20;99.90;;;;;;4948554;29;20838;-85
2022/06/08 01:06:42;;;;;;;3.60;3.40;;;14.10;99.90;;;;;;4948112;29;20508;-85
2022/06/08 01:09:16;;;;;;;4.20;3.90;;;14.10;99.90;;;;;;4947927;29;20453;-85
2022/06/08 01:11:45;;;;;;;4.67;4.30;;;14.00;99.90;;;;;;4951171;29;20472;-87
2022/06/08 01:14:14;;;;;;;4.20;3.80;;;14.00;99.90;;;;;;4949875;29;20522;-88
2022/06/08 01:16:48;;;;;;;4.33;3.93;;;14.00;99.90;;;;;;4948023;29;20465;-87
2022/06/08 01:19:15;;;;;;;4.07;3.77;;;13.90;99.90;;;;;;4947743;29;20464;-85
2022/06/08 01:21:58;;;;;;;3.80;3.50;;;13.90;99.90;;;;;;4947887;29;20457;-85
2022/06/08 01:24:27;;;;;;;3.83;3.53;;;13.90;99.90;;;;;;4947908;29;20514;-85
2022/06/08 02:20:23;;;;;;;4.87;4.47;;;13.30;99.90;;;;;;4668248;30;20458;-82
2022/06/08 02:48:02;;;;;;;4.60;4.20;;;13.10;99.90;;;;;;4810251;29;20491;-81
2022/06/08 02:58:46;;;;;;;4.03;3.73;;;13.20;99.90;;;;;;4864269;29;20508;-82
2022/06/08 03:22:31;;;;;;;4.13;3.53;;;13.00;99.90;;;;;;4807694;29;20486;-82
2022/06/08 06:11:01;;;;;;;2.93;1.93;;;15.90;99.90;;;;;;4810124;29;20458;-81
2022/06/08 06:27:40;;;;;;;2.80;2.60;;;16.80;99.90;;;;;;4774661;29;20837;-81
2022/06/08 06:34:45;;;;;;;;;;;;;;;;;;;;;
2022/06/08 06:37:13;;;;;;;6.87;2.53;;;17.50;99.90;;;;;;4807445;29;20610;-82
2022/06/08 06:39:51;;;;;;;2.90;2.67;;;17.50;99.90;;;;;;4882270;29;21042;-82
2022/06/08 06:43:08;;;;;;;2.93;2.73;;;17.40;99.90;;;;;;4881221;29;20456;-82
2022/06/08 06:49:45;;;;;;;4.70;2.53;;;17.30;99.90;;;;;;4825524;29;20455;-81
2022/06/08 06:55:05;;;;;;;3.10;2.20;;;17.20;99.90;;;;;;4891605;29;20485;-81
2022/06/08 06:57:38;;;;;;;6.10;2.77;;;17.10;99.90;;;;;;4896108;29;20529;-81
2022/06/08 07:00:16;;;;;;;1.97;1.87;;;17.40;99.90;;;;;;4889309;29;20469;-82
2022/06/08 07:02:45;;;;;;;2.40;1.67;;;17.40;99.90;;;;;;4895829;29;20453;-82
2022/06/08 07:05:23;;;;;;;8.27;2.93;;;17.50;99.90;;;;;;4909265;29;21059;-82
2022/06/08 07:08:06;;;;;;;2.80;2.10;;;17.60;99.90;;;;;;4917669;29;21000;-82
2022/06/08 07:10:37;;;;;;;3.93;2.13;;;17.70;99.90;;;;;;4918085;29;20454;-81
2022/06/08 07:14:04;;;;;;;;;;;;;;;;;;;;;
2022/06/08 07:16:31;;;;;;;6.00;2.97;;;18.00;99.90;;;;;;4915715;29;20560;-82
2022/06/08 07:19:22;;;;;;;2.20;2.00;;;18.10;99.90;;;;;;4920009;29;20940;-87
2022/06/08 07:21:50;;;;;;;4.20;2.50;;;18.20;99.90;;;;;;4913923;29;20457;-84
2022/06/08 07:24:41;;;;;;;3.70;2.00;;;18.10;99.90;;;;;;4905771;29;20468;-83
2022/06/08 07:27:07;;;;;;;3.67;2.10;;;18.00;99.90;;;;;;4919883;29;20537;-82
2022/06/08 07:29:34;;;;;;;4.33;2.67;;;18.10;99.90;;;;;;4909824;29;20855;-81
2022/06/08 07:32:01;;;;;;;2.77;2.13;;;18.20;99.90;;;;;;4914991;29;20449;-81
2022/06/08 07:34:29;;;;;;;2.03;1.83;;;18.20;99.90;;;;;;4921266;29;20521;-84
2022/06/08 07:36:56;;;;;;;2.67;1.50;;;18.20;99.90;;;;;;4920038;29;20488;-82
2022/06/08 07:39:24;;;;;;;1.73;1.63;;;18.20;99.90;;;;;;4920882;29;20464;-83
2022/06/08 07:41:52;;;;;;;4.13;2.23;;;18.10;99.90;;;;;;4919916;29;20461;-80
2022/06/08 07:44:20;;;;;;;2.37;2.17;;;18.00;99.90;;;;;;4922522;29;20973;-82
2022/06/08 07:46:47;;;;;;;3.17;2.03;;;17.80;99.90;;;;;;4923096;29;20490;-81
2022/06/08 07:52:01;;;;;;;2.70;2.20;;;17.50;99.90;;;;;;4923360;29;20461;-81
2022/06/08 07:54:30;;;;;;;5.30;2.63;;;17.30;99.90;;;;;;4923229;29;20496;-82
2022/06/08 07:56:59;;;;;;;3.10;2.57;;;17.20;99.90;;;;;;4923239;29;21012;-81
2022/06/08 07:59:28;;;;;;;1.83;1.47;;;17.20;99.90;;;;;;4922916;29;20454;-81
2022/06/08 08:01:54;;;;;;;6.00;2.43;;;17.10;99.90;;;;;;4922734;29;20460;-81
2022/06/08 08:04:21;;;;;;;1.90;1.80;;;17.20;99.90;;;;;;4922904;29;20460;-82
2022/06/08 08:06:48;;;;;;;3.03;2.70;;;17.20;99.90;;;;;;4922940;29;20493;-81
2022/06/08 08:09:18;;;;;;;7.90;3.00;;;17.20;99.90;;;;;;4922901;29;20446;-81
2022/06/08 08:11:46;;;;;;;2.27;2.13;;;17.30;99.90;;;;;;4923478;29;20557;-81
2022/06/08 08:14:14;;;;;;;2.70;1.63;;;17.30;99.90;;;;;;4923145;29;20842;-80
2022/06/08 08:16:42;;;;;;;2.90;2.57;;;17.30;99.90;;;;;;4922950;29;20480;-81
2022/06/08 08:19:10;;;;;;;5.33;3.10;;;17.20;99.90;;;;;;4922963;29;20499;-80
2022/06/08 08:21:37;;;;;;;3.80;2.40;;;17.30;99.90;;;;;;4923287;29;20822;-81
2022/06/08 08:24:04;;;;;;;4.27;2.10;;;17.40;99.90;;;;;;4923155;29;20457;-81
2022/06/08 08:26:33;;;;;;;3.43;1.73;;;17.60;99.90;;;;;;4923372;29;20477;-81
2022/06/08 08:29:00;;;;;;;5.53;2.50;;;17.70;99.90;;;;;;4922324;29;20461;-81
2022/06/08 08:31:28;;;;;;;5.10;2.20;;;17.80;99.90;;;;;;4922281;29;20492;-80
2022/06/08 08:33:55;;;;;;;6.37;2.87;;;17.90;99.90;;;;;;4922749;29;20488;-81
2022/06/08 08:36:22;;;;;;;2.70;2.00;;;18.00;99.90;;;;;;4923141;29;20481;-81
2022/06/08 08:38:49;;;;;;;5.93;2.37;;;18.20;99.90;;;;;;4922629;29;20462;-81
2022/06/08 08:44:06;;;;;;;2.17;1.93;;;18.50;99.90;;;;;;4922769;29;20932;-80
2022/06/08 08:46:43;;;;;;;1.83;1.73;;;18.70;99.90;;;;;;4922134;29;20478;-81
2022/06/08 08:49:19;;;;;;;2.07;1.97;;;18.80;99.90;;;;;;4922747;29;21063;-81
2022/06/08 08:51:53;;;;;;;1.67;1.57;;;18.90;99.90;;;;;;4922177;29;20448;-81
2022/06/08 08:54:26;;;;;;;4.70;3.20;;;19.00;99.90;;;;;;4922445;29;20499;-81
2022/06/08 08:57:00;;;;;;;6.63;2.07;;;19.00;99.90;;;;;;4922237;29;21071;-81
2022/06/08 08:59:30;;;;;;;6.30;2.07;;;19.00;99.90;;;;;;4922663;29;20457;-81
2022/06/08 09:02:00;;;;;;;1.63;1.53;;;19.20;99.90;;;;;;4922731;29;20459;-81
2022/06/08 09:04:29;;;;;;;3.77;1.90;;;19.40;99.90;;;;;;4921941;29;20470;-81
2022/06/08 09:06:57;;;;;;;2.23;1.90;;;19.50;99.90;;;;;;4922224;29;20466;-81
2022/06/08 09:09:29;;;;;;;2.63;1.70;;;19.60;99.90;;;;;;4922049;29;20482;-81
2022/06/08 09:11:56;;;;;;;1.97;1.47;;;19.60;99.70;;;;;;4922126;29;20480;-81
2022/06/08 09:14:25;;;;;;;3.20;1.80;;;19.50;99.40;;;;;;4922035;29;20501;-81
2022/06/08 09:17:09;;;;;;;5.47;2.27;;;19.50;99.90;;;;;;4921900;29;20477;-81
2022/06/08 09:19:43;;;;;;;4.50;2.10;;;19.60;99.90;;;;;;4922165;29;20457;-81
2022/06/08 09:22:28;;;;;;;6.57;2.23;;;19.50;99.90;;;;;;4922198;29;20790;-81
2022/06/08 09:24:58;;;;;;;1.87;1.77;;;19.70;99.90;;;;;;4922088;29;20539;-81
2022/06/08 09:27:29;;;;;;;2.53;2.03;;;19.70;99.90;;;;;;4921971;29;20490;-81
2022/06/08 09:30:14;;;;;;;3.33;1.47;;;19.60;98.80;;;;;;4922284;29;20464;-81
2022/06/08 09:32:45;;;;;;;2.00;1.27;;;19.70;97.90;;;;;;4922477;29;20454;-81
2022/06/08 09:35:23;;;;;;;2.07;1.57;;;19.90;98.50;;;;;;4921986;29;20533;-81
2022/06/08 09:37:52;;;;;;;2.70;1.33;;;20.10;98.40;;;;;;4922172;29;20463;-81
2022/06/08 09:40:40;;;;;;;6.70;1.70;;;20.00;96.50;;;;;;4921704;29;20462;-81
2022/06/08 09:43:28;;;;;;;1.20;0.90;;;20.00;96.00;;;;;;4921761;29;20458;-81
2022/06/08 09:45:58;;;;;;;1.00;1.00;;;20.10;95.00;;;;;;4922090;29;20489;-81
2022/06/08 09:51:56;;;;;;;3.60;1.20;;;20.60;94.70;;;;;;4925310;29;20487;-81
2022/06/08 09:54:32;;;;;;;1.73;1.00;;;20.80;93.50;;;;;;4925653;29;20488;-81
2022/06/08 09:57:14;;;;;;;2.70;1.23;;;21.00;93.00;;;;;;4922153;29;20842;-81
2022/06/08 09:59:58;;;;;;;2.20;1.50;;;21.10;93.30;;;;;;4921998;29;20458;-81
2022/06/08 10:02:34;;;;;;;1.93;1.30;;;21.30;92.10;;;;;;4921351;29;20462;-81
2022/06/08 10:07:48;;;;;;;1.17;1.07;;;21.60;91.50;;;;;;4113938;26;20544;-81
2022/06/08 10:10:54;;;;;;;;;;;;;;;;;;;;;
2022/06/08 10:13:27;;;;;;;1.37;0.90;;;22.10;92.10;;;;;;4959273;28;20517;-81
2022/06/08 10:16:02;;;;;;;2.57;1.40;;;22.00;90.60;;;;;;4960059;28;20493;-81
2022/06/08 10:18:51;;;;;;;2.10;1.50;;;22.00;89.80;;;;;;4959273;28;20462;-81
2022/06/08 10:24:39;;;;;;;1.90;1.27;;;22.10;92.40;;;;;;4958931;28;20460;-81
2022/06/08 10:27:38;;;;;;;;;;;;;;;;;;;;;
2022/06/08 10:30:45;;;;;;;2.77;1.30;;;22.00;90.90;;;;;;4959078;28;20541;-81
2022/06/08 10:34:27;;;;;;;1.07;1.00;;;22.00;91.40;;;;;;4956864;28;20827;-81
2022/06/08 10:51:06;;;;;;;1.40;1.30;;;23.30;88.20;;;;;;4912917;28;20961;-81
2022/06/08 11:04:11;;;;;;;2.70;1.67;;;24.80;82.10;;;;;;4955485;28;20449;-81
2022/06/08 11:06:58;;;;;;;2.37;1.40;;;24.70;77.80;;;;;;4948822;28;20472;-81
2022/06/08 11:09:49;;;;;;;1.63;1.50;;;24.20;74.70;;;;;;4959687;29;20453;-81
2022/06/08 11:12:42;;;;;;;0.77;0.77;;;24.00;73.10;;;;;;4958384;29;20459;-81
2022/06/08 11:15:15;;;;;;;4.43;1.73;;;24.20;74.60;;;;;;4948896;28;20488;-81
2022/06/08 11:17:49;;;;;;;1.40;1.20;;;24.50;74.80;;;;;;4961867;28;20457;-81
2022/06/08 11:20:19;;;;;;;1.33;1.10;;;24.80;74.70;;;;;;4963330;29;20784;-82
2022/06/08 11:22:52;;;;;;;4.10;1.13;;;25.10;70.70;;;;;;4962888;29;20446;-81
2022/06/08 11:25:27;;;;;;;1.20;1.10;;;25.50;70.80;;;;;;4963382;28;20481;-81
2022/06/08 11:28:33;;;;;;;1.70;1.03;;;26.10;71.40;;;;;;4962894;29;20459;-81
2022/06/08 11:31:02;;;;;;;2.00;1.00;;;26.00;67.70;;;;;;4963050;28;20833;-81
2022/06/08 11:33:53;;;;;;;2.70;1.17;;;25.60;68.40;;;;;;4962491;29;20530;-81
2022/06/08 11:36:40;;;;;;;12.97;6.23;;;25.50;69.90;;;;;;4961769;28;20531;-81
2022/06/08 11:39:21;;;;;;;62.60;51.33;;;26.00;68.80;;;;;;4962857;29;20522;-81
2022/06/08 11:42:00;;;;;;;4.37;4.07;;;26.20;63.30;;;;;;4962195;28;20494;-81
2022/06/08 11:44:33;;;;;;;19.73;17.63;;;26.20;62.50;;;;;;4964892;28;20479;-81
2022/06/08 11:47:05;;;;;;;13.57;11.43;;;26.30;62.60;;;;;;4964026;28;20925;-81
2022/06/08 11:49:39;;;;;;;2.23;1.30;;;26.30;61.20;;;;;;4962152;28;20546;-81
2022/06/08 11:52:21;;;;;;;3.40;1.60;;;26.30;59.70;;;;;;4962686;29;20450;-81
2022/06/08 13:25:33;;;;;;;0.90;0.90;;;26.60;55.80;;;;;;1349025;23;20855;-82
2022/06/08 13:28:01;;;;;;;1.07;1.00;;;26.40;55.00;;;;;;4998864;28;20446;-82
2022/06/08 13:30:31;;;;;;;2.37;1.30;;;26.20;54.60;;;;;;4998836;28;20470;-82
2022/06/08 13:32:58;;;;;;;5.00;3.70;;;26.00;56.00;;;;;;4998555;28;20451;-82
2022/06/08 13:35:29;;;;;;;2.63;2.40;;;25.80;57.90;;;;;;4998669;28;20850;-82
2022/06/08 13:37:55;;;;;;;1.90;1.17;;;25.80;57.20;;;;;;4997900;28;20460;-82
2022/06/08 13:40:24;;;;;;;1.53;1.10;;;25.60;57.60;;;;;;4997411;28;20866;-82
2022/06/08 13:42:53;;;;;;;1.47;1.37;;;25.80;55.40;;;;;;4997938;28;20456;-82
2022/06/08 13:45:23;;;;;;;1.07;1.07;;;25.70;57.10;;;;;;5009036;28;20490;-82
2022/06/08 13:47:54;;;;;;;1.23;1.13;;;25.90;56.40;;;;;;4998005;28;20449;-82
2022/06/08 13:50:26;;;;;;;1.43;1.33;;;25.80;56.40;;;;;;4997943;28;20441;-82
2022/06/08 13:52:53;;;;;;;1.20;1.10;;;25.60;56.30;;;;;;4997949;28;20461;-82
2022/06/08 13:55:23;;;;;;;1.63;1.17;;;25.10;58.00;;;;;;4998700;28;20447;-82
2022/06/08 13:57:52;;;;;;;3.10;1.33;;;24.90;57.90;;;;;;4990414;28;20538;-82
2022/06/08 14:00:19;;;;;;;0.90;0.90;;;24.80;58.00;;;;;;4997386;28;20940;-82
2022/06/08 14:02:50;;;;;;;1.23;0.90;;;24.60;58.80;;;;;;4997404;28;20471;-82
2022/06/08 14:05:20;;;;;;;1.57;1.30;;;24.50;58.90;;;;;;4998056;28;20483;-82
2022/06/08 14:13:22;;;;;;;1.20;1.10;;;24.00;59.60;;;;;;4998618;28;20439;-82
2022/06/08 14:15:51;;;;;;;1.03;1.00;;;24.20;60.90;;;;;;4998375;28;20518;-82
2022/06/08 14:18:21;;;;;;;0.93;0.93;;;24.20;63.20;;;;;;4998383;28;20466;-82
2022/06/08 14:20:48;;;;;;;1.93;1.80;;;24.40;62.80;;;;;;4998747;28;20450;-82
2022/06/08 14:23:18;;;;;;;1.50;1.40;;;24.70;62.10;;;;;;4998590;28;20945;-82
2022/06/08 14:25:45;;;;;;;1.20;1.10;;;24.50;61.10;;;;;;4997774;28;20498;-81
2022/06/08 14:28:13;;;;;;;1.50;1.40;;;23.90;60.00;;;;;;4997405;28;20454;-82
2022/06/08 14:30:43;;;;;;;1.20;1.10;;;23.60;61.50;;;;;;4997317;28;20458;-82
2022/06/08 14:33:19;;;;;;;1.50;1.40;;;23.20;62.80;;;;;;5003010;28;20445;-82
2022/06/08 14:35:48;;;;;;;1.83;1.30;;;22.90;65.00;;;;;;5001018;28;20500;-82
2022/06/08 14:38:16;;;;;;;1.67;1.57;;;22.90;67.00;;;;;;4998029;28;21001;-82
2022/06/08 14:40:44;;;;;;;2.20;1.63;;;22.50;74.20;;;;;;4998988;28;20454;-82
2022/06/08 14:43:11;;;;;;;1.70;1.33;;;22.10;78.90;;;;;;4996314;28;20459;-82
2022/06/08 14:45:39;;;;;;;1.77;1.67;;;21.00;88.40;;;;;;4996104;28;20833;-81
2022/06/08 14:48:15;;;;;;;4.03;2.80;;;19.90;92.30;;;;;;4995497;28;20455;-80
2022/06/08 14:50:44;;;;;;;2.60;1.90;;;18.90;98.30;;;;;;4994524;28;20478;-80
2022/06/08 14:53:12;;;;;;;1.80;1.70;;;18.40;99.90;;;;;;4995452;28;20488;-80
2022/06/08 14:58:25;;;;;;;4.47;1.93;;;17.70;99.90;;;;;;4994870;28;20427;-80
2022/06/08 15:00:54;;;;;;;2.63;1.80;;;17.60;99.90;;;;;;4994654;28;20994;-80
2022/06/08 15:03:25;;;;;;;2.93;2.73;;;17.40;99.90;;;;;;4994525;28;20452;-80
2022/06/08 15:05:53;;;;;;;2.93;2.73;;;17.40;99.90;;;;;;4994754;28;20474;-81
2022/06/08 15:08:21;;;;;;;3.30;2.17;;;17.20;99.90;;;;;;4995253;28;20457;-81
2022/06/08 15:13:37;;;;;;;1.53;1.30;;;17.30;99.90;;;;;;4995846;28;20443;-80
2022/06/08 15:16:04;;;;;;;3.57;2.20;;;17.50;99.90;;;;;;4994557;28;20506;-81
2022/06/08 15:18:33;;;;;;;3.73;3.27;;;17.70;99.90;;;;;;4995731;28;20450;-80
2022/06/08 15:21:00;;;;;;;2.47;1.97;;;17.80;99.90;;;;;;4995085;28;20457;-81
2022/06/08 15:23:27;;;;;;;1.70;1.47;;;17.70;99.90;;;;;;5004474;28;20482;-80
2022/06/08 15:25:56;;;;;;;2.20;1.87;;;17.70;99.90;;;;;;4995385;28;20484;-81
2022/06/08 15:28:25;;;;;;;2.47;1.80;;;17.70;99.90;;;;;;4995391;28;20460;-81
2022/06/08 15:30:53;;;;;;;1.90;1.70;;;17.70;99.90;;;;;;4994380;28;20513;-79
2022/06/08 15:33:22;;;;;;;1.40;1.30;;;17.70;99.90;;;;;;4998863;28;20461;-81
2022/06/08 15:35:57;;;;;;;1.97;1.27;;;17.70;99.90;;;;;;4995516;28;20501;-80
2022/06/08 15:38:24;;;;;;;2.13;1.13;;;17.80;99.90;;;;;;4976500;28;20453;-81
2022/06/08 15:40:51;;;;;;;4.20;1.77;;;17.90;99.90;;;;;;4993616;28;20469;-81
2022/06/08 15:43:18;;;;;;;2.03;1.67;;;17.80;99.90;;;;;;4994891;28;20943;-80
2022/06/08 15:45:45;;;;;;;1.63;1.33;;;17.80;99.90;;;;;;4995734;28;20469;-80
2022/06/08 15:48:13;;;;;;;2.20;1.30;;;17.70;99.90;;;;;;4995013;28;20461;-81
2022/06/08 15:50:46;;;;;;;2.60;1.73;;;17.50;99.90;;;;;;4995221;28;20453;-80
2022/06/08 15:53:21;;;;;;;2.70;2.50;;;17.30;99.90;;;;;;4995290;28;20456;-80
2022/06/08 15:55:48;;;;;;;1.80;1.70;;;17.30;99.90;;;;;;4995699;28;20518;-81
2022/06/08 15:58:19;;;;;;;2.03;1.87;;;17.20;99.90;;;;;;4995099;28;20461;-80
2022/06/08 16:00:46;;;;;;;2.37;1.80;;;17.00;99.90;;;;;;4995814;28;20463;-81
2022/06/08 16:03:13;;;;;;;1.93;1.83;;;16.90;99.90;;;;;;4996758;28;20483;-81
2022/06/08 16:05:42;;;;;;;3.83;1.80;;;16.70;99.90;;;;;;4999623;28;20475;-84
2022/06/08 16:08:11;;;;;;;1.97;1.70;;;16.60;99.90;;;;;;4992507;28;20884;-82
2022/06/08 16:11:35;;;;;;;3.43;1.90;;;16.50;99.90;;;;;;4995420;28;20823;-84
2022/06/08 16:14:04;;;;;;;5.07;2.23;;;16.40;99.90;;;;;;5003290;28;20454;-85
2022/06/08 16:16:31;;;;;;;2.90;2.23;;;16.20;99.90;;;;;;5000809;28;20495;-81
2022/06/08 16:18:58;;;;;;;4.93;2.13;;;16.20;99.90;;;;;;5003695;28;20486;-83
2022/06/08 16:21:43;;;;;;;1.90;1.80;;;16.10;99.90;;;;;;4993093;28;20469;-84
2022/06/08 16:24:11;;;;;;;4.93;2.50;;;16.10;99.90;;;;;;4991219;28;20519;-84
2022/06/08 16:26:39;;;;;;;3.03;2.33;;;16.20;99.90;;;;;;5010027;28;20569;-84
2022/06/08 16:29:13;;;;;;;1.93;1.80;;;16.20;99.90;;;;;;5003560;28;20550;-84
2022/06/08 16:31:54;;;;;;;2.47;2.37;;;16.20;99.90;;;;;;4999591;28;20455;-86
2022/06/08 16:34:30;;;;;;;1.97;1.87;;;16.20;99.90;;;;;;5002181;28;20491;-84
2022/06/08 16:37:04;;;;;;;4.27;1.80;;;16.10;99.90;;;;;;5001142;28;20526;-84
2022/06/08 16:39:31;;;;;;;2.13;1.93;;;16.10;99.90;;;;;;4999555;28;20461;-83
2022/06/08 16:41:58;;;;;;;4.30;2.30;;;16.20;99.90;;;;;;4997429;28;20456;-84
2022/06/08 16:44:26;;;;;;;2.20;2.00;;;16.10;99.90;;;;;;4999664;28;20523;-82
2022/06/08 16:46:54;;;;;;;2.07;1.90;;;16.10;99.90;;;;;;4998379;28;21004;-83
2022/06/08 16:49:21;;;;;;;5.50;1.83;;;16.10;99.90;;;;;;4988366;28;20949;-81
2022/06/08 16:52:35;;;;;;;2.10;1.83;;;16.00;99.90;;;;;;5006625;28;20473;-86
2022/06/08 16:55:03;;;;;;;2.17;1.97;;;16.10;99.90;;;;;;5001043;28;20559;-85
2022/06/08 17:00:25;;;;;;;3.40;2.17;;;16.10;99.90;;;;;;4968452;28;20463;-84
2022/06/08 17:02:51;;;;;;;2.27;2.07;;;16.10;99.90;;;;;;5010705;28;20448;-84
2022/06/08 17:05:21;;;;;;;4.70;2.37;;;16.00;99.90;;;;;;5002602;28;20458;-85
2022/06/08 17:07:48;;;;;;;1.90;1.70;;;16.00;99.90;;;;;;5001941;28;20456;-84
2022/06/08 17:10:15;;;;;;;4.40;2.17;;;16.00;99.90;;;;;;5000931;28;20459;-84
2022/06/08 17:12:42;;;;;;;2.53;2.33;;;16.00;99.90;;;;;;5001037;28;20460;-83
2022/06/08 17:15:11;;;;;;;3.47;2.93;;;16.00;99.90;;;;;;5000806;28;20505;-85
2022/06/08 17:17:39;;;;;;;3.40;2.00;;;16.00;99.90;;;;;;5003419;28;20545;-81
2022/06/08 17:20:09;;;;;;;2.63;2.43;;;16.00;99.90;;;;;;5002890;28;20457;-82
2022/06/08 17:22:37;;;;;;;2.57;1.90;;;16.10;99.90;;;;;;5006486;28;20462;-82
2022/06/08 17:25:04;;;;;;;2.23;2.03;;;16.10;99.90;;;;;;5004859;28;20459;-81
2022/06/08 17:27:31;;;;;;;2.23;2.00;;;16.20;99.90;;;;;;5004440;28;20992;-82
2022/06/08 17:29:58;;;;;;;2.00;1.63;;;16.30;99.90;;;;;;5001185;28;20470;-83
2022/06/08 17:32:25;;;;;;;2.30;2.10;;;16.30;99.90;;;;;;5000834;28;20546;-85
2022/06/08 17:34:53;;;;;;;1.83;1.70;;;16.20;99.90;;;;;;5000339;28;20460;-83
2022/06/08 17:37:20;;;;;;;1.37;1.27;;;16.10;99.90;;;;;;5001648;28;20515;-82
2022/06/08 17:39:47;;;;;;;2.10;2.00;;;16.00;99.90;;;;;;5001915;28;20464;-85
2022/06/08 18:16:35;;;;;;;2.47;1.80;;;15.70;99.90;;;;;;3146795;26;20507;-80
2022/06/08 18:19:01;;;;;;;2.47;2.37;;;15.70;99.90;;;;;;5000340;28;20466;-84
2022/06/08 18:21:28;;;;;;;1.73;1.63;;;15.70;99.90;;;;;;5001189;28;20992;-85
2022/06/08 18:23:55;;;;;;;3.10;2.43;;;15.80;99.90;;;;;;5004679;28;20456;-86
2022/06/08 18:26:25;;;;;;;2.10;1.97;;;15.80;99.90;;;;;;4992037;28;20473;-85
2022/06/08 18:28:53;;;;;;;3.87;2.10;;;15.80;99.90;;;;;;4982565;28;20453;-84
2022/06/08 18:31:22;;;;;;;2.30;2.10;;;15.80;99.90;;;;;;4987852;28;20449;-84
2022/06/08 18:33:50;;;;;;;2.20;2.10;;;15.80;99.90;;;;;;4997746;28;20453;-86
2022/06/08 18:36:20;;;;;;;3.27;2.90;;;15.80;99.90;;;;;;4988151;28;20528;-85
2022/06/08 18:38:47;;;;;;;1.77;1.60;;;15.80;99.90;;;;;;4979324;28;20453;-87
2022/06/08 18:41:25;;;;;;;3.20;2.23;;;15.90;99.90;;;;;;4985421;28;20456;-84
2022/06/08 18:43:59;;;;;;;2.47;1.93;;;16.00;99.90;;;;;;4988248;28;20463;-85
2022/06/08 18:46:27;;;;;;;2.60;1.80;;;15.90;99.90;;;;;;4988542;28;20479;-85
2022/06/08 18:48:59;;;;;;;6.13;2.33;;;15.90;99.90;;;;;;4976550;28;20470;-87
2022/06/08 18:51:27;;;;;;;4.43;2.53;;;15.80;99.90;;;;;;4985316;28;20959;-87
2022/06/08 18:53:58;;;;;;;2.40;2.20;;;15.80;99.90;;;;;;4995925;28;20460;-85
2022/06/08 18:56:25;;;;;;;4.00;1.77;;;15.90;99.90;;;;;;4987035;28;20543;-83
2022/06/08 18:58:57;;;;;;;2.33;2.17;;;16.00;99.90;;;;;;4976294;28;20953;-86
2022/06/08 19:01:26;;;;;;;2.97;2.70;;;16.10;99.90;;;;;;4983348;28;20886;-85
2022/06/08 19:04:00;;;;;;;1.80;1.70;;;16.00;99.90;;;;;;4996027;28;20456;-87
2022/06/08 19:06:27;;;;;;;3.33;2.47;;;16.00;99.90;;;;;;4994423;28;20471;-87
2022/06/08 19:08:56;;;;;;;4.97;2.00;;;16.00;99.90;;;;;;4995844;28;20444;-85
2022/06/08 19:11:25;;;;;;;4.50;4.20;;;16.00;99.90;;;;;;4994337;28;20452;-85
2022/06/08 19:13:54;;;;;;;2.30;2.10;;;16.10;99.90;;;;;;4986818;28;20455;-82
2022/06/08 19:16:22;;;;;;;4.47;2.87;;;16.20;99.90;;;;;;4981167;28;20988;-85
2022/06/08 19:21:37;;;;;;;2.53;2.00;;;16.20;99.90;;;;;;4983353;28;20458;-87
2022/06/08 19:24:04;;;;;;;7.00;2.50;;;16.20;99.90;;;;;;4977127;28;20852;-85
2022/06/08 19:26:31;;;;;;;2.97;2.77;;;16.20;99.90;;;;;;4987103;28;20472;-79
2022/06/08 19:28:59;;;;;;;5.33;2.80;;;16.10;99.90;;;;;;4978390;28;20835;-81
2022/06/08 19:31:31;;;;;;;2.80;2.50;;;16.20;99.90;;;;;;4994408;28;20459;-80
2022/06/08 19:34:00;;;;;;;4.70;2.87;;;16.20;99.90;;;;;;4998036;28;20450;-80
2022/06/08 19:36:40;;;;;;;3.33;2.90;;;16.20;99.90;;;;;;4981264;28;20496;-80
2022/06/08 19:39:09;;;;;;;3.30;2.80;;;16.10;99.90;;;;;;4985435;28;20452;-80
2022/06/08 19:41:38;;;;;;;2.80;2.60;;;15.90;99.90;;;;;;5002003;28;20539;-82
2022/06/08 19:44:07;;;;;;;3.60;3.30;;;15.90;99.90;;;;;;4990451;28;20954;-82
2022/06/08 19:46:34;;;;;;;3.37;3.07;;;15.80;99.90;;;;;;4983863;28;20476;-80
2022/06/08 19:49:01;;;;;;;3.50;3.20;;;15.70;99.90;;;;;;4992351;28;20451;-79
2022/06/08 19:51:29;;;;;;;3.57;3.20;;;15.60;99.90;;;;;;5001377;28;20487;-79
2022/06/08 19:53:57;;;;;;;3.70;3.40;;;15.60;99.90;;;;;;4992257;28;20576;-79
2022/06/08 19:56:27;;;;;;;8.03;3.33;;;15.60;99.90;;;;;;4982513;28;20494;-79
2022/06/08 19:58:54;;;;;;;3.00;2.80;;;15.60;99.90;;;;;;4990870;28;20452;-79
2022/06/08 20:01:26;;;;;;;4.07;3.20;;;15.70;99.90;;;;;;5000988;28;20452;-79
2022/06/08 20:03:53;;;;;;;4.13;3.73;;;15.60;99.90;;;;;;4994106;28;20460;-79
2022/06/08 20:06:24;;;;;;;3.20;3.00;;;15.60;99.90;;;;;;4982368;28;20456;-79
2022/06/08 20:08:51;;;;;;;2.80;2.47;;;15.60;99.90;;;;;;4999237;28;20456;-80
2022/06/08 20:11:22;;;;;;;2.37;2.27;;;15.60;99.90;;;;;;4991280;28;20463;-79
2022/06/08 20:13:50;;;;;;;2.23;2.10;;;15.50;99.90;;;;;;4982244;28;20516;-79
2022/06/08 20:16:17;;;;;;;4.03;2.67;;;15.50;99.90;;;;;;4991666;28;20484;-80
2022/06/08 20:18:45;;;;;;;3.70;2.47;;;15.40;99.90;;;;;;5006849;28;20542;-78
2022/06/08 20:21:15;;;;;;;3.10;2.00;;;15.40;99.90;;;;;;5004832;28;20472;-80
2022/06/08 20:23:42;;;;;;;1.47;1.40;;;15.40;99.90;;;;;;5005758;28;20459;-80
2022/06/08 20:26:10;;;;;;;2.83;1.83;;;15.30;99.90;;;;;;5009635;28;20459;-80
2022/06/08 20:28:39;;;;;;;1.63;1.53;;;15.30;99.90;;;;;;5009507;28;20449;-80
2022/06/08 20:31:08;;;;;;;2.40;1.80;;;15.30;99.90;;;;;;5009691;28;20540;-79
2022/06/08 20:33:36;;;;;;;2.00;1.30;;;15.40;99.90;;;;;;5006792;28;20508;-79
2022/06/08 20:36:03;;;;;;;1.00;0.90;;;15.30;99.90;;;;;;5009881;28;20541;-79
2022/06/08 20:38:30;;;;;;;1.17;1.13;;;15.20;99.90;;;;;;5007869;28;20516;-79
2022/06/08 20:40:56;;;;;;;2.07;1.97;;;15.10;99.90;;;;;;5009881;28;20444;-79
2022/06/08 20:43:24;;;;;;;1.50;1.40;;;15.20;99.90;;;;;;5007962;28;20873;-79
2022/06/08 20:45:50;;;;;;;1.93;1.57;;;15.10;99.90;;;;;;5010574;28;20459;-81
2022/06/08 20:48:19;;;;;;;1.33;1.23;;;15.20;99.90;;;;;;5002788;28;20448;-79
2022/06/08 20:50:47;;;;;;;2.40;2.20;;;15.20;99.90;;;;;;4981786;28;20452;-78
2022/06/08 20:53:17;;;;;;;2.40;1.70;;;15.10;99.90;;;;;;4998023;28;20474;-79
2022/06/08 20:55:44;;;;;;;1.77;1.67;;;15.10;99.90;;;;;;5001913;28;20476;-78
2022/06/08 20:58:11;;;;;;;1.40;1.30;;;15.00;99.90;;;;;;5000925;28;20483;-82
2022/06/08 21:00:39;;;;;;;1.80;1.70;;;15.00;99.90;;;;;;5000543;28;20459;-80
2022/06/08 21:03:08;;;;;;;1.97;1.87;;;14.90;99.90;;;;;;5002388;28;20455;-80
2022/06/08 21:05:41;;;;;;;1.17;1.17;;;14.90;99.90;;;;;;4997707;28;20480;-81
2022/06/08 21:08:09;;;;;;;1.40;1.30;;;14.90;99.90;;;;;;4983504;28;20455;-79
2022/06/08 21:10:35;;;;;;;1.33;1.20;;;14.90;99.90;;;;;;4988173;28;20451;-80
2022/06/08 21:13:03;;;;;;;1.20;1.20;;;14.90;99.90;;;;;;5001952;28;20545;-80
2022/06/08 21:15:30;;;;;;;1.37;1.27;;;14.90;99.90;;;;;;4998724;28;20505;-80